Time;durP1;ratioP1;P1;durP2;ratioP2;P2;SDS_P1;SDS_P2;PMS_P1;PMS_P2;Temp;Humidity;BMP_temperature;BMP_pressure;BME280_temperature;BME280_humidity;BME280_pressure;Samples;Min_cycle;Max_cycle;Signal;HPM_P1;HPM_P2
2022/04/20 00:00:47;;;;;;;24.30;13.13;;;;;;;10.04;75.75;100719.19;4960051;28;20062;-62
2022/04/20 00:03:15;;;;;;;26.52;13.60;;;;;;;9.99;76.19;100722.06;4974573;28;20062;-61
2022/04/20 00:05:42;;;;;;;30.27;13.88;;;;;;;10.25;76.22;100716.00;4977112;28;20054;-62
2022/04/20 00:08:09;;;;;;;23.17;14.02;;;;;;;10.39;75.04;100717.56;4954494;28;20054;-63
2022/04/20 00:10:37;;;;;;;24.52;15.20;;;;;;;10.54;74.62;100710.88;4976494;28;20176;-62
2022/04/20 00:13:04;;;;;;;25.98;14.07;;;;;;;10.22;75.13;100711.13;4967294;28;20402;-62
2022/04/20 00:15:31;;;;;;;31.10;15.40;;;;;;;10.13;75.50;100705.53;4976439;28;20057;-61
2022/04/20 00:17:59;;;;;;;26.38;14.88;;;;;;;10.29;75.36;100706.00;4963368;28;20074;-61
2022/04/20 00:20:26;;;;;;;30.63;15.50;;;;;;;10.26;75.36;100706.63;4974724;28;20058;-65
2022/04/20 00:22:53;;;;;;;28.75;15.45;;;;;;;10.29;75.27;100708.78;4961603;28;20046;-65
2022/04/20 00:25:21;;;;;;;32.92;16.98;;;;;;;10.08;75.85;100711.13;4964112;28;20410;-67
2022/04/20 00:27:48;;;;;;;30.95;16.20;;;;;;;10.03;76.16;100711.25;4978134;28;20050;-66
2022/04/20 00:30:15;;;;;;;31.98;17.30;;;;;;;9.90;76.59;100710.16;4980129;28;20047;-67
2022/04/20 00:32:43;;;;;;;35.20;17.92;;;;;;;9.83;76.83;100707.00;4964671;28;20051;-67
2022/04/20 00:35:13;;;;;;;32.35;17.20;;;;;;;10.00;76.56;100706.38;4973274;28;20063;-67
2022/04/20 00:37:43;;;;;;;;;;;;;;;9.87;77.38;100698.94;4958806;28;20133;-66
2022/04/20 00:40:11;;;;;;;32.28;17.77;;;;;;;10.07;76.88;100698.50;4974245;28;19922;-66
2022/04/20 00:42:40;;;;;;;38.80;17.90;;;;;;;10.02;76.62;100701.38;4958656;28;20061;-66
2022/04/20 00:45:09;;;;;;;31.17;18.52;;;;;;;9.88;77.25;100693.16;4966159;28;20074;-67
2022/04/20 00:47:37;;;;;;;33.47;18.63;;;;;;;9.62;78.39;100700.34;4957490;28;20051;-66
2022/04/20 00:50:06;;;;;;;33.58;20.08;;;;;;;9.82;78.47;100699.88;4958985;28;20058;-66
2022/04/20 00:52:34;;;;;;;30.52;18.83;;;;;;;9.79;77.71;100694.19;4956011;28;20055;-66
2022/04/20 00:55:21;;;;;;;37.15;20.35;;;;;;;9.96;77.07;100694.34;4969485;28;20058;-65
2022/04/20 00:57:49;;;;;;;34.03;19.27;;;;;;;9.94;77.14;100693.84;4934827;28;20038;-65
2022/04/20 01:00:17;;;;;;;35.35;20.13;;;;;;;9.73;78.34;100690.72;4957372;28;20599;-67
2022/04/20 01:02:46;;;;;;;32.17;19.67;;;;;;;9.69;78.34;100695.22;4955249;28;20043;-66
2022/04/20 01:05:15;;;;;;;36.42;20.08;;;;;;;9.54;79.00;100691.97;4951607;29;20114;-66
2022/04/20 01:08:01;;;;;;;35.25;20.70;;;;;;;9.55;79.35;100685.38;4963347;28;20043;-66
2022/04/20 01:10:58;;;;;;;29.65;19.70;;;;;;;9.72;78.65;100678.13;4901867;28;20060;-66
2022/04/20 01:13:44;;;;;;;36.80;21.73;;;;;;;9.75;78.82;100683.00;4969952;28;20054;-66
2022/04/20 01:16:28;;;;;;;32.00;20.58;;;;;;;9.54;79.04;100690.03;4959649;28;20509;-66
2022/04/20 01:19:32;;;;;;;43.05;22.50;;;;;;;9.32;80.70;100680.91;4973191;28;20058;-66
2022/04/20 01:22:20;;;;;;;38.22;22.33;;;;;;;9.33;80.73;100682.53;4938346;28;20059;-66
2022/04/20 01:25:22;;;;;;;38.88;23.80;;;;;;;9.28;80.98;100688.94;4975019;28;20414;-67
2022/04/20 01:28:02;;;;;;;45.73;23.83;;;;;;;9.65;80.55;100674.13;4975152;28;20042;-66
2022/04/20 01:30:41;;;;;;;37.67;23.33;;;;;;;9.73;79.47;100671.47;4978767;28;20050;-66
2022/04/20 01:33:24;;;;;;;38.58;21.67;;;;;;;9.83;78.73;100670.44;4958027;28;20058;-67
2022/04/20 01:35:52;;;;;;;38.72;22.52;;;;;;;9.83;78.38;100686.94;4955374;28;20051;-66
2022/04/20 01:38:19;;;;;;;37.03;22.08;;;;;;;9.62;79.33;100683.00;4969695;28;20058;-66
2022/04/20 01:40:47;;;;;;;39.28;23.55;;;;;;;9.80;79.57;100682.03;4958060;28;20074;-66
2022/04/20 01:43:14;;;;;;;38.38;24.90;;;;;;;9.53;80.01;100682.94;4974929;28;20418;-66
2022/04/20 01:46:04;;;;;;;;;;;;;;;9.67;79.87;100680.97;4939196;29;20070;-66
2022/04/20 01:48:47;;;;;;;40.85;24.50;;;;;;;9.60;79.90;100679.75;4966878;28;19923;-62
2022/04/20 01:51:46;;;;;;;40.40;24.17;;;;;;;9.60;80.31;100685.25;4937505;28;20063;-61
2022/04/20 01:54:32;;;;;;;37.67;22.65;;;;;;;9.62;79.86;100688.53;4946337;28;20063;-61
2022/04/20 01:57:14;;;;;;;42.75;23.95;;;;;;;9.37;80.85;100683.53;4974261;28;20046;-62
2022/04/20 02:00:00;;;;;;;43.15;25.42;;;;;;;9.29;81.64;100679.59;4972342;28;20054;-61
2022/04/20 02:02:47;;;;;;;43.92;26.25;;;;;;;9.30;81.65;100683.13;4975053;28;20054;-62
2022/04/20 02:05:24;;;;;;;43.15;27.33;;;;;;;9.35;81.35;100681.09;4975407;28;20514;-62
2022/04/20 02:08:06;;;;;;;43.75;26.45;;;;;;;9.21;82.01;100680.28;4968968;28;20043;-63
2022/04/20 02:10:54;;;;;;;47.08;26.55;;;;;;;9.38;82.00;100674.97;4974034;28;20058;-63
2022/04/20 02:13:22;;;;;;;41.80;26.70;;;;;;;9.52;81.09;100675.00;4957073;28;20058;-62
2022/04/20 02:15:51;;;;;;;45.35;27.25;;;;;;;9.36;81.80;100673.69;4975109;28;20061;-63
2022/04/20 02:18:37;;;;;;;44.85;27.25;;;;;;;9.54;81.18;100675.47;4960471;28;20070;-61
2022/04/20 02:21:25;;;;;;;50.58;30.02;;;;;;;9.27;81.76;100662.59;4950299;28;20470;-62
2022/04/20 02:23:52;;;;;;;49.00;28.00;;;;;;;9.44;81.24;100661.94;4976404;28;20054;-62
2022/04/20 02:26:20;;;;;;;47.58;30.08;;;;;;;9.10;82.51;100656.88;4969849;28;20051;-62
2022/04/20 02:28:47;;;;;;;53.75;31.70;;;;;;;9.25;82.68;100650.25;4959051;29;20058;-62
2022/04/20 02:31:16;;;;;;;49.22;31.63;;;;;;;9.12;82.79;100654.63;4952998;28;20474;-62
2022/04/20 02:33:44;;;;;;;53.00;32.75;;;;;;;8.97;83.34;100653.00;4953438;28;20054;-62
2022/04/20 02:36:12;;;;;;;55.15;32.47;;;;;;;8.81;84.79;100659.09;4986621;28;20061;-62
2022/04/20 02:38:39;;;;;;;58.92;34.42;;;;;;;8.81;85.11;100646.19;4949950;28;20051;-61
2022/04/20 02:41:07;;;;;;;52.47;32.58;;;;;;;8.89;84.53;100636.44;4976316;28;20055;-62
2022/04/20 02:43:35;;;;;;;49.42;33.35;;;;;;;8.92;84.68;100633.06;4965018;28;20070;-62
2022/04/20 02:46:03;;;;;;;52.42;33.08;;;;;;;8.93;84.42;100638.25;4964471;28;20058;-61
2022/04/20 02:48:30;;;;;;;53.15;33.35;;;;;;;9.13;83.49;100633.47;4957615;28;20047;-61
2022/04/20 02:50:58;;;;;;;57.33;33.45;;;;;;;9.26;82.89;100630.72;4964755;28;20385;-61
2022/04/20 02:53:26;;;;;;;54.42;34.63;;;;;;;9.02;83.56;100627.38;4955499;28;20054;-62
2022/04/20 02:55:53;;;;;;;53.70;33.50;;;;;;;9.09;83.72;100639.59;4978144;28;20061;-62
2022/04/20 02:58:21;;;;;;;57.33;34.42;;;;;;;8.97;83.61;100635.72;4966532;28;20506;-62
2022/04/20 03:00:54;;;;;;;54.10;35.30;;;;;;;8.88;84.24;100621.88;4972165;28;20054;-62
2022/04/20 03:03:33;;;;;;;55.17;35.47;;;;;;;9.01;83.41;100629.28;4955257;28;20066;-62
2022/04/20 03:06:19;;;;;;;59.45;34.70;;;;;;;8.98;83.52;100623.59;4964603;28;20042;-61
2022/04/20 03:08:47;;;;;;;57.22;36.33;;;;;;;8.83;84.57;100618.41;4964644;28;20047;-62
2022/04/20 03:11:17;;;;;;;59.53;36.70;;;;;;;8.73;85.05;100619.44;4960955;28;20058;-62
2022/04/20 03:13:48;;;;;;;62.97;37.88;;;;;;;8.76;85.43;100618.00;4960179;28;20058;-62
2022/04/20 03:16:17;;;;;;;61.33;38.17;;;;;;;8.76;85.38;100618.00;4944184;28;20061;-60
2022/04/20 03:18:44;;;;;;;58.17;36.85;;;;;;;8.91;84.93;100620.44;4976760;28;20510;-62
2022/04/20 03:21:18;;;;;;;59.60;37.58;;;;;;;8.83;85.19;100619.22;4961427;28;20054;-62
2022/04/20 03:23:46;;;;;;;58.45;35.88;;;;;;;8.97;84.46;100621.97;4955306;28;20043;-62
2022/04/20 03:26:21;;;;;;;61.70;37.47;;;;;;;8.99;84.35;100620.56;4947550;28;20051;-62
2022/04/20 03:28:58;;;;;;;55.05;37.55;;;;;;;9.01;83.58;100629.28;4962206;28;20064;-61
2022/04/20 03:31:26;;;;;;;61.80;39.45;;;;;;;8.81;84.63;100631.63;4982013;28;20051;-61
2022/04/20 03:33:58;;;;;;;60.05;38.10;;;;;;;8.92;84.52;100633.88;4946263;28;20513;-61
2022/04/20 03:36:26;;;;;;;66.18;39.00;;;;;;;8.91;83.80;100643.22;4974767;28;20055;-60
2022/04/20 03:38:53;;;;;;;58.67;37.75;;;;;;;9.10;83.24;100641.19;4968569;28;20054;-62
2022/04/20 03:41:22;;;;;;;62.67;39.20;;;;;;;9.03;83.71;100642.75;4954886;28;20051;-62
2022/04/20 03:43:49;;;;;;;59.95;37.70;;;;;;;9.18;83.32;100638.84;4969385;28;20066;-62
2022/04/20 03:46:16;;;;;;;61.35;38.50;;;;;;;9.05;83.35;100638.56;4956812;29;20154;-61
2022/04/20 03:48:45;;;;;;;59.45;38.60;;;;;;;8.82;84.34;100650.53;4952026;28;20051;-63
2022/04/20 03:51:12;;;;;;;62.30;38.40;;;;;;;9.01;83.89;100643.03;4975617;28;20062;-61
2022/04/20 03:53:40;;;;;;;64.00;39.97;;;;;;;9.08;83.19;100654.41;4966536;28;20051;-61
2022/04/20 03:56:08;;;;;;;60.08;38.70;;;;;;;8.93;84.22;100657.47;4975944;28;20058;-61
2022/04/20 03:58:36;;;;;;;69.82;39.72;;;;;;;9.04;83.81;100647.94;4978414;28;20042;-62
2022/04/20 04:01:05;;;;;;;58.25;39.20;;;;;;;9.07;83.83;100641.81;4962562;28;20054;-62
2022/04/20 04:03:34;;;;;;;64.03;40.00;;;;;;;9.19;82.65;100640.50;4959634;28;20059;-62
2022/04/20 04:06:10;;;;;;;64.32;40.70;;;;;;;9.04;83.66;100642.44;4975302;28;20047;-61
2022/04/20 04:08:37;;;;;;;70.82;42.35;;;;;;;9.09;82.80;100636.84;4959741;28;20069;-62
2022/04/20 04:11:04;;;;;;;67.25;41.30;;;;;;;8.99;82.76;100637.03;4959133;28;20047;-61
2022/04/20 04:13:32;;;;;;;64.38;40.72;;;;;;;9.03;83.20;100635.28;4959510;28;20065;-60
2022/04/20 04:16:01;;;;;;;66.55;40.00;;;;;;;9.25;81.88;100631.03;4962139;28;20477;-61
2022/04/20 04:18:29;;;;;;;64.38;41.13;;;;;;;9.12;82.25;100635.41;4982130;28;20082;-62
2022/04/20 04:20:59;;;;;;;;;;;;;;;8.78;83.63;100640.47;4958974;28;20042;-61
2022/04/20 04:23:27;;;;;;;67.95;42.78;;;;;;;8.62;84.79;100652.84;4959167;28;19922;-66
2022/04/20 04:26:06;;;;;;;69.93;44.10;;;;;;;8.65;85.14;100642.06;4959211;28;20050;-68
2022/04/20 04:28:41;;;;;;;72.72;41.80;;;;;;;8.72;84.73;100647.16;4942585;28;20306;-66
2022/04/20 04:31:10;;;;;;;66.78;42.40;;;;;;;8.76;84.76;100638.03;4942091;28;20054;-66
2022/04/20 04:33:38;;;;;;;63.20;41.15;;;;;;;8.83;84.56;100641.19;4976529;28;20050;-65
2022/04/20 04:36:05;;;;;;;70.53;42.60;;;;;;;9.07;83.75;100641.00;4984990;28;20124;-66
2022/04/20 04:38:39;;;;;;;63.92;40.33;;;;;;;9.05;83.26;100638.56;4957028;28;20055;-66
2022/04/20 04:41:08;;;;;;;68.33;43.37;;;;;;;9.12;83.22;100651.88;4966978;28;20057;-66
2022/04/20 04:43:36;;;;;;;67.78;41.67;;;;;;;8.97;83.28;100646.69;4958405;28;20058;-66
2022/04/20 04:49:28;;;;;;;68.68;43.67;;;;;;;9.05;83.28;100660.53;4954387;28;20062;-66
2022/04/20 04:51:57;;;;;;;67.22;42.80;;;;;;;9.39;82.10;100656.56;4944628;28;20066;-67
2022/04/20 04:54:25;;;;;;;65.47;41.38;;;;;;;9.26;81.23;100657.41;4958577;28;20059;-67
2022/04/20 04:56:55;;;;;;;71.70;44.05;;;;;;;9.09;81.90;100661.56;4950334;28;20065;-66
2022/04/20 04:59:22;;;;;;;65.85;43.25;;;;;;;8.92;83.04;100649.53;4971983;28;20123;-67
2022/04/20 05:01:54;;;;;;;69.15;43.83;;;;;;;8.93;82.80;100659.41;4958323;28;20066;-66
2022/04/20 05:04:22;;;;;;;71.60;42.63;;;;;;;9.34;81.83;100660.25;4975237;28;20047;-67
2022/04/20 05:06:59;;;;;;;63.38;42.50;;;;;;;9.35;81.28;100659.09;4959446;28;20047;-66
2022/04/20 05:09:30;;;;;;;63.92;41.28;;;;;;;9.33;80.67;100655.06;4976430;28;20039;-66
2022/04/20 05:11:58;;;;;;;66.88;43.42;;;;;;;9.04;82.23;100653.44;4952246;28;20058;-66
2022/04/20 05:14:25;;;;;;;67.28;43.38;;;;;;;9.10;82.19;100648.63;4969034;28;20055;-66
2022/04/20 05:16:56;;;;;;;69.30;43.92;;;;;;;9.14;81.92;100660.63;4974545;28;20051;-66
2022/04/20 05:19:25;;;;;;;67.97;44.13;;;;;;;9.25;81.56;100658.50;4970582;28;20433;-66
2022/04/20 05:21:56;;;;;;;72.63;43.92;;;;;;;9.07;82.04;100646.50;4959717;28;20043;-66
2022/04/20 05:24:31;;;;;;;64.93;44.30;;;;;;;9.22;81.88;100654.44;4958162;28;20114;-66
2022/04/20 05:26:58;;;;;;;68.85;43.92;;;;;;;9.51;81.00;100656.84;4963644;28;20062;-66
2022/04/20 05:29:30;;;;;;;72.80;45.80;;;;;;;9.32;80.10;100658.91;4958094;28;20039;-66
2022/04/20 05:32:02;;;;;;;69.05;44.15;;;;;;;9.47;79.85;100666.81;4957800;28;20434;-66
2022/04/20 05:34:33;;;;;;;69.05;44.08;;;;;;;9.39;80.07;100671.13;4972575;28;20050;-66
2022/04/20 05:42:40;;;;;;;69.50;44.15;;;;;;;9.41;79.45;100674.38;4958378;28;20059;-66
2022/04/20 05:45:10;;;;;;;67.05;44.10;;;;;;;9.62;79.33;100664.59;4965263;28;20059;-66
2022/04/20 05:47:40;;;;;;;67.68;44.70;;;;;;;9.62;78.97;100666.53;4944232;28;20057;-66
2022/04/20 05:50:08;;;;;;;69.82;44.53;;;;;;;9.61;78.91;100662.94;4957145;28;20050;-67
2022/04/20 05:52:36;;;;;;;69.90;44.28;;;;;;;9.44;80.12;100667.44;4923742;28;20055;-65
2022/04/20 05:55:04;;;;;;;73.47;45.05;;;;;;;9.37;79.76;100659.63;4953554;28;20047;-66
2022/04/20 05:57:36;;;;;;;74.82;45.53;;;;;;;9.33;79.84;100664.09;4960926;28;20063;-67
2022/04/20 06:00:04;;;;;;;72.97;45.17;;;;;;;9.57;79.72;100667.41;4978085;28;20465;-66
2022/04/20 06:02:42;;;;;;;67.25;43.35;;;;;;;9.54;78.94;100656.22;4979339;28;20058;-67
2022/04/20 06:05:15;;;;;;;66.75;43.80;;;;;;;9.54;78.95;100657.03;4959646;28;20050;-66
2022/04/20 06:08:30;;;;;;;67.35;44.00;;;;;;;9.70;77.55;100658.34;4964292;28;20046;-66
2022/04/20 06:11:16;;;;;;;66.30;43.47;;;;;;;9.29;79.39;100654.84;4979014;28;20053;-66
2022/04/20 06:13:44;;;;;;;68.32;44.63;;;;;;;9.17;79.95;100660.03;4978371;28;20051;-68
2022/04/20 06:16:20;;;;;;;69.97;44.08;;;;;;;9.33;79.83;100657.81;4966241;28;20502;-66
2022/04/20 06:18:57;;;;;;;64.93;43.33;;;;;;;9.51;78.90;100660.41;4961511;28;20059;-66
2022/04/20 06:21:28;;;;;;;71.25;44.25;;;;;;;9.61;78.20;100659.38;4954609;28;20059;-65
2022/04/20 06:24:22;;;;;;;69.90;44.22;;;;;;;9.33;79.07;100658.59;4953998;28;20434;-67
2022/04/20 06:27:11;;;;;;;73.05;43.90;;;;;;;9.40;79.35;100661.75;4964101;28;20070;-66
2022/04/20 06:29:58;;;;;;;66.80;42.75;;;;;;;9.74;78.34;100664.88;4968135;28;20618;-66
2022/04/20 06:32:36;;;;;;;73.20;44.03;;;;;;;9.51;79.54;100665.09;4962680;28;20050;-64
2022/04/20 06:35:22;;;;;;;66.28;43.03;;;;;;;9.71;78.70;100662.72;4944285;28;20047;-63
2022/04/20 06:38:08;;;;;;;70.72;43.00;;;;;;;9.62;79.29;100658.28;4977050;28;20047;-64
2022/04/20 06:40:43;;;;;;;68.68;42.60;;;;;;;9.54;79.20;100653.47;4974366;28;20054;-64
2022/04/20 06:43:32;;;;;;;68.63;42.03;;;;;;;9.72;78.77;100658.03;4966097;28;20066;-63
2022/04/20 06:46:22;;;;;;;69.78;40.13;;;;;;;10.20;80.62;100662.69;4971140;28;20063;-67
2022/04/20 06:49:15;;;;;;;63.78;39.88;;;;;;;10.69;75.78;100660.91;4959974;28;20061;-68
2022/04/20 07:00:25;;;;;;;60.70;36.88;;;;;;;11.62;67.75;100646.69;4960381;28;20070;-67
2022/04/20 07:03:12;;;;;;;66.85;36.25;;;;;;;11.99;68.21;100650.81;4978398;28;20043;-68
2022/04/20 07:05:59;;;;;;;59.42;35.53;;;;;;;11.84;66.69;100652.09;4974979;28;20053;-68
2022/04/20 07:08:27;;;;;;;59.35;36.00;;;;;;;12.17;65.86;100652.44;4977456;28;20122;-67
2022/04/20 07:11:13;;;;;;;63.70;36.88;;;;;;;11.43;67.38;100656.38;4966665;28;20055;-68
2022/04/20 07:13:42;;;;;;;57.22;35.63;;;;;;;11.75;66.54;100654.03;4975979;28;20050;-68
2022/04/20 07:16:09;;;;;;;58.88;35.30;;;;;;;11.90;65.10;100652.75;4960353;28;20050;-68
2022/04/20 07:18:40;;;;;;;55.17;33.17;;;;;;;11.75;66.02;100656.00;4960542;28;20062;-68
2022/04/20 07:21:26;;;;;;;65.10;33.85;;;;;;;11.71;64.67;100658.59;4966700;28;20047;-68
2022/04/20 07:24:28;;;;;;;51.80;32.92;;;;;;;11.77;65.36;100654.53;4916998;29;20052;-68
2022/04/20 07:26:58;;;;;;;55.35;32.70;;;;;;;11.58;64.91;100653.97;4966695;28;20414;-67
2022/04/20 07:29:31;;;;;;;51.95;31.52;;;;;;;11.96;64.81;100657.78;4988100;28;20050;-69
2022/04/20 07:32:17;;;;;;;52.65;33.63;;;;;;;11.98;64.09;100662.97;4975752;28;20124;-68
2022/04/20 07:35:05;;;;;;;53.47;31.70;;;;;;;12.67;63.41;100664.56;4940620;28;20066;-68
2022/04/20 07:37:53;;;;;;;50.88;31.38;;;;;;;12.31;61.34;100669.63;4977200;28;20152;-67
2022/04/20 07:40:20;;;;;;;46.50;28.13;;;;;;;12.82;62.13;100666.81;4963898;28;20050;-68
2022/04/20 07:43:20;;;;;;;46.20;29.35;;;;;;;12.44;60.65;100668.66;4940686;28;20506;-69
2022/04/20 07:46:12;;;;;;;50.88;29.33;;;;;;;12.68;61.14;100660.66;4943089;28;20051;-67
2022/04/20 07:52:19;;;;;;;37.33;25.23;;;;;;;12.95;57.82;100660.28;4966792;28;20066;-65
2022/04/20 07:55:13;;;;;;;35.40;24.00;;;;;;;13.22;57.24;100659.03;4965300;28;20059;-65
2022/04/20 07:58:06;;;;;;;37.45;22.25;;;;;;;13.23;56.76;100661.47;4954763;28;20063;-65
2022/04/20 08:01:05;;;;;;;35.30;22.50;;;;;;;13.07;56.25;100663.19;4958934;28;20054;-67
2022/04/20 08:03:32;;;;;;;36.75;23.08;;;;;;;13.30;55.98;100664.53;4977260;28;20805;-65
2022/04/20 08:06:01;;;;;;;36.90;22.13;;;;;;;13.41;55.52;100659.44;4949790;28;20443;-66
2022/04/20 08:08:32;;;;;;;30.77;19.55;;;;;;;13.28;54.73;100653.00;4958799;28;20055;-66
2022/04/20 08:11:01;;;;;;;30.35;19.25;;;;;;;13.37;54.52;100653.75;4958200;28;20043;-66
2022/04/20 08:16:37;;;;;;;31.27;19.42;;;;;;;13.53;53.37;100651.22;4962031;28;20055;-65
2022/04/20 08:19:33;;;;;;;31.48;20.40;;;;;;;13.67;53.61;100651.78;4914345;28;20507;-65
2022/04/20 08:22:14;;;;;;;27.65;18.15;;;;;;;13.85;52.44;100649.72;4974052;28;20059;-65
2022/04/20 08:24:45;;;;;;;27.98;18.50;;;;;;;14.16;52.38;100650.13;4975795;28;20051;-65
2022/04/20 08:27:14;;;;;;;28.13;18.73;;;;;;;14.18;51.71;100647.81;4959404;28;20065;-65
2022/04/20 08:29:42;;;;;;;33.40;19.48;;;;;;;14.03;51.01;100662.28;4975877;28;20055;-64
2022/04/20 08:32:09;;;;;;;27.70;18.98;;;;;;;13.93;50.95;100659.94;4973623;28;20054;-66
2022/04/20 08:34:37;;;;;;;39.67;19.00;;;;;;;14.24;51.07;100652.81;4959007;28;20054;-66
2022/04/20 08:37:24;;;;;;;32.25;19.02;;;;;;;14.22;50.60;100657.91;4973244;28;20510;-64
2022/04/20 08:39:52;;;;;;;27.88;18.38;;;;;;;14.30;51.08;100664.53;4961351;28;20051;-62
2022/04/20 08:42:20;;;;;;;29.08;18.85;;;;;;;14.33;50.98;100664.66;4971570;28;20206;-62
2022/04/20 08:44:50;;;;;;;38.40;19.55;;;;;;;14.21;50.22;100670.13;4974414;28;20062;-63
2022/04/20 08:47:22;;;;;;;28.85;18.20;;;;;;;14.31;50.55;100663.41;4975316;28;20053;-61
2022/04/20 08:49:50;;;;;;;30.95;18.40;;;;;;;14.21;50.06;100663.78;4974831;28;20043;-62
2022/04/20 08:55:25;;;;;;;35.05;18.33;;;;;;;14.70;49.75;100659.28;4953388;28;20066;-62
2022/04/20 08:57:53;;;;;;;32.25;18.40;;;;;;;14.87;49.05;100661.84;4962353;28;20046;-62
2022/04/20 09:00:23;;;;;;;29.70;16.63;;;;;;;14.86;48.78;100668.53;4973572;28;20057;-62
2022/04/20 09:02:52;;;;;;;22.95;15.88;;;;;;;14.96;48.12;100662.56;4974920;28;20050;-63
2022/04/20 09:05:24;;;;;;;26.63;15.25;;;;;;;14.98;48.10;100660.25;4974009;28;20054;-61
2022/04/20 09:07:52;;;;;;;26.08;15.05;;;;;;;15.40;47.17;100658.94;4975068;28;20047;-63
2022/04/20 09:10:20;;;;;;;22.50;14.85;;;;;;;15.35;47.13;100664.69;4973891;28;20058;-62
2022/04/20 09:13:08;;;;;;;26.67;16.65;;;;;;;15.14;46.69;100650.91;4961459;28;20047;-62
2022/04/20 09:15:36;;;;;;;25.35;15.80;;;;;;;15.20;47.14;100651.50;4973150;28;20050;-62
2022/04/20 09:18:07;;;;;;;28.73;15.88;;;;;;;15.15;47.32;100651.75;4975493;28;20050;-62
2022/04/20 09:20:35;;;;;;;25.67;15.15;;;;;;;15.36;47.37;100644.13;4974183;28;20534;-63
2022/04/20 09:23:04;;;;;;;29.20;14.82;;;;;;;15.48;46.54;100639.38;4957926;28;20047;-63
2022/04/20 09:25:39;;;;;;;30.50;16.42;;;;;;;15.62;46.37;100644.59;4975053;28;20065;-62
2022/04/20 09:28:07;;;;;;;26.90;15.27;;;;;;;15.35;46.11;100637.75;4955900;28;20054;-65
2022/04/20 09:30:39;;;;;;;29.30;17.10;;;;;;;15.38;45.82;100642.59;4967587;28;20434;-62
2022/04/20 09:33:07;;;;;;;29.33;15.82;;;;;;;15.09;46.32;100648.38;4965168;28;20051;-62
2022/04/20 09:35:49;;;;;;;23.58;14.82;;;;;;;15.21;46.91;100637.28;4971083;28;20406;-61
2022/04/20 09:38:21;;;;;;;28.73;15.88;;;;;;;15.15;46.30;100641.44;4956922;28;20058;-61
2022/04/20 09:41:10;;;;;;;31.23;15.15;;;;;;;15.13;46.63;100642.94;4939902;28;20047;-61
2022/04/20 09:43:38;;;;;;;33.00;15.18;;;;;;;15.32;46.34;100626.53;4966999;28;20066;-62
2022/04/20 09:49:10;;;;;;;27.67;13.95;;;;;;;15.73;45.07;100627.09;4971804;28;20065;-62
2022/04/20 09:51:40;;;;;;;26.52;13.48;;;;;;;15.74;45.44;100622.38;4954362;28;20220;-62
2022/04/20 09:54:48;;;;;;;25.60;12.20;;;;;;;15.45;45.04;100619.84;4954546;29;20055;-61
2022/04/20 09:57:15;;;;;;;21.08;13.18;;;;;;;15.76;44.71;100628.34;4884635;29;20138;-62
2022/04/20 10:00:05;;;;;;;22.92;11.95;;;;;;;15.94;44.78;100615.81;4944413;28;20086;-62
2022/04/20 10:02:53;;;;;;;25.95;12.27;;;;;;;15.60;44.95;100619.16;4966305;28;20390;-62
2022/04/20 10:05:23;;;;;;;22.30;11.05;;;;;;;15.90;44.19;100614.91;4945137;28;20086;-64
2022/04/20 10:07:54;;;;;;;17.80;11.57;;;;;;;15.71;44.41;100614.72;4957162;28;20050;-63
2022/04/20 10:10:23;;;;;;;31.35;11.55;;;;;;;15.83;44.46;100609.13;4970198;28;20061;-62
2022/04/20 10:12:54;;;;;;;18.60;11.48;;;;;;;16.18;44.21;100615.72;4974834;28;20053;-61
2022/04/20 10:18:22;;;;;;;25.05;10.60;;;;;;;16.27;44.22;100610.84;4967984;28;20059;-62
2022/04/20 10:20:51;;;;;;;19.98;10.70;;;;;;;16.04;44.25;100604.22;4942635;28;20070;-65
2022/04/20 10:23:21;;;;;;;18.98;11.00;;;;;;;16.01;44.36;100599.34;4975078;28;20058;-64
2022/04/20 10:25:50;;;;;;;22.50;12.10;;;;;;;16.33;44.58;100597.50;4973708;28;20054;-65
2022/04/20 10:28:33;;;;;;;19.57;8.93;;;;;;;16.48;43.49;100605.09;4973500;28;20054;-67
2022/04/20 10:31:32;;;;;;;21.23;9.75;;;;;;;16.10;43.98;100602.00;4954184;28;20399;-66
2022/04/20 10:34:04;;;;;;;21.00;10.25;;;;;;;15.94;44.74;100593.59;4954674;28;20061;-67
2022/04/20 10:37:02;;;;;;;17.83;9.45;;;;;;;16.04;44.92;100600.63;4955339;28;20066;-66
2022/04/20 10:39:36;;;;;;;16.70;9.65;;;;;;;16.08;44.49;100590.41;4966424;28;20054;-66
2022/04/20 10:42:16;;;;;;;19.50;10.27;;;;;;;16.16;44.95;100595.81;4946948;28;20046;-67
2022/04/20 10:44:50;;;;;;;22.30;10.88;;;;;;;16.14;45.13;100583.47;4962957;28;20073;-66
2022/04/20 10:47:28;;;;;;;18.25;9.60;;;;;;;16.29;45.18;100583.50;4977541;28;20061;-64
2022/04/20 10:50:19;;;;;;;16.27;8.85;;;;;;;16.49;45.06;100581.69;4957549;28;20427;-62
2022/04/20 10:52:48;;;;;;;16.58;8.65;;;;;;;16.55;45.37;100583.03;4975826;28;20051;-63
2022/04/20 10:55:15;;;;;;;17.23;9.10;;;;;;;16.72;45.15;100577.94;4955940;28;20065;-62
2022/04/20 10:57:43;;;;;;;11.07;7.10;;;;;;;16.57;45.60;100578.75;4960191;28;20062;-61
2022/04/20 11:00:17;;;;;;;19.35;9.82;;;;;;;16.96;45.62;100574.22;4972071;28;20529;-62
2022/04/20 11:02:51;;;;;;;12.93;6.93;;;;;;;16.92;44.90;100573.31;4977667;28;20065;-62
2022/04/20 11:05:22;;;;;;;14.48;7.05;;;;;;;16.88;44.28;100570.44;4976777;28;20704;-62
2022/04/20 11:08:06;;;;;;;12.60;6.88;;;;;;;16.54;44.99;100560.00;4975837;28;20054;-62
2022/04/20 11:10:34;;;;;;;13.10;6.53;;;;;;;16.88;44.98;100557.69;4970073;28;20070;-61
2022/04/20 11:19:11;;;;;;;10.43;5.47;;;;;;;16.89;43.94;100563.69;4959639;28;20498;-62
2022/04/20 11:22:09;;;;;;;10.45;5.55;;;;;;;16.90;43.34;100550.59;4955115;28;20051;-62
2022/04/20 11:24:42;;;;;;;29.70;5.78;;;;;;;16.97;43.97;100547.97;4976389;28;20059;-62
2022/04/20 11:27:10;;;;;;;12.43;5.40;;;;;;;17.16;43.53;100548.06;4973848;28;20437;-61
2022/04/20 11:29:43;;;;;;;9.02;5.57;;;;;;;17.34;42.86;100549.28;4975690;28;20057;-61
2022/04/20 11:32:13;;;;;;;13.02;5.00;;;;;;;17.44;41.97;100550.69;4973519;28;20051;-62
2022/04/20 11:35:06;;;;;;;8.35;4.43;;;;;;;17.73;41.08;100550.19;4947837;28;20066;-59
2022/04/20 11:37:34;;;;;;;12.35;5.82;;;;;;;17.59;40.29;100545.09;4958626;28;20050;-65
2022/04/20 11:40:12;;;;;;;14.68;4.13;;;;;;;17.72;39.70;100543.81;4975486;28;20047;-65
2022/04/20 11:42:40;;;;;;;9.75;3.28;;;;;;;17.90;38.76;100539.41;4962500;28;20051;-66
2022/04/20 11:45:08;;;;;;;6.95;3.67;;;;;;;17.83;38.95;100544.84;4961981;28;20455;-66
2022/04/20 11:47:40;;;;;;;11.93;3.60;;;;;;;17.92;38.94;100534.28;4959388;28;20062;-65
2022/04/20 11:50:12;;;;;;;17.35;4.35;;;;;;;17.96;38.78;100542.69;4974152;28;20439;-65
2022/04/20 11:53:03;;;;;;;13.60;5.05;;;;;;;18.02;38.48;100538.47;4965145;28;20050;-66
2022/04/20 11:55:49;;;;;;;8.60;4.05;;;;;;;17.83;38.49;100522.56;4971430;28;20050;-67
2022/04/20 11:58:16;;;;;;;7.38;3.63;;;;;;;17.99;38.35;100531.63;4956746;28;20062;-66
2022/04/20 12:00:44;;;;;;;8.05;3.20;;;;;;;18.12;37.42;100529.50;4974207;28;20057;-67
2022/04/20 12:03:11;;;;;;;13.48;3.22;;;;;;;18.26;37.11;100520.59;4974964;28;20043;-61
2022/04/20 12:05:38;;;;;;;8.68;3.05;;;;;;;18.31;35.52;100525.88;4959673;28;20039;-62
2022/04/20 12:08:07;;;;;;;5.25;2.80;;;;;;;18.32;35.32;100525.53;4975721;28;20438;-67
2022/04/20 12:10:34;;;;;;;5.35;3.22;;;;;;;18.23;33.88;100524.13;4975952;28;20422;-62
2022/04/20 12:13:02;;;;;;;8.25;2.90;;;;;;;18.39;34.35;100522.88;4976087;28;20356;-61
2022/04/20 12:15:30;;;;;;;7.40;2.72;;;;;;;18.30;33.90;100511.13;4975115;28;20055;-62
2022/04/20 12:18:03;;;;;;;5.90;2.90;;;;;;;18.22;34.35;100530.91;4952798;28;20054;-62
2022/04/20 12:20:31;;;;;;;6.38;2.55;;;;;;;18.24;34.24;100520.97;4969749;28;20069;-61
2022/04/20 12:23:17;;;;;;;10.10;3.03;;;;;;;18.51;33.57;100524.69;4976714;28;20058;-61
2022/04/20 12:25:50;;;;;;;6.63;2.83;;;;;;;18.61;33.34;100513.72;4955575;28;20066;-61
2022/04/20 12:28:36;;;;;;;8.77;3.00;;;;;;;18.52;33.05;100517.94;4960226;28;20055;-61